sensor_id;sensor_type;location;lat;lon;timestamp;temperature;humidity
26707;DHT22;14319;49.422;10.934;2023-09-19T00:01:56;17.70;92.30
26707;DHT22;14319;49.422;10.934;2023-09-19T00:03:57;17.70;92.50
26707;DHT22;14319;49.422;10.934;2023-09-19T00:05:58;17.60;92.00
26707;DHT22;14319;49.422;10.934;2023-09-19T00:08:01;17.70;91.60
26707;DHT22;14319;49.422;10.934;2023-09-19T00:10:03;17.70;91.80
26707;DHT22;14319;49.422;10.934;2023-09-19T00:12:06;17.70;91.70
26707;DHT22;14319;49.422;10.934;2023-09-19T00:14:06;17.70;92.00
26707;DHT22;14319;49.422;10.934;2023-09-19T00:16:10;17.70;91.40
26707;DHT22;14319;49.422;10.934;2023-09-19T00:18:11;17.70;91.00
26707;DHT22;14319;49.422;10.934;2023-09-19T00:20:11;17.70;91.70
26707;DHT22;14319;49.422;10.934;2023-09-19T00:22:13;17.70;91.20
26707;DHT22;14319;49.422;10.934;2023-09-19T00:24:16;17.70;91.30
26707;DHT22;14319;49.422;10.934;2023-09-19T00:26:17;17.70;91.80
26707;DHT22;14319;49.422;10.934;2023-09-19T00:28:22;17.70;91.10
26707;DHT22;14319;49.422;10.934;2023-09-19T00:30:22;17.70;91.10
26707;DHT22;14319;49.422;10.934;2023-09-19T00:32:24;17.70;90.50
26707;DHT22;14319;49.422;10.934;2023-09-19T00:34:25;17.70;90.80
26707;DHT22;14319;49.422;10.934;2023-09-19T00:36:25;17.70;90.70
26707;DHT22;14319;49.422;10.934;2023-09-19T00:38:26;17.60;90.30
26707;DHT22;14319;49.422;10.934;2023-09-19T00:40:27;17.60;90.80
26707;DHT22;14319;49.422;10.934;2023-09-19T00:42:28;17.60;90.70
26707;DHT22;14319;49.422;10.934;2023-09-19T00:44:28;17.50;90.60
26707;DHT22;14319;49.422;10.934;2023-09-19T00:46:30;17.50;90.70
26707;DHT22;14319;49.422;10.934;2023-09-19T00:48:40;17.40;91.00
26707;DHT22;14319;49.422;10.934;2023-09-19T00:50:42;17.40;91.40
26707;DHT22;14319;49.422;10.934;2023-09-19T00:52:44;17.40;91.00
26707;DHT22;14319;49.422;10.934;2023-09-19T00:54:47;17.50;91.20
26707;DHT22;14319;49.422;10.934;2023-09-19T00:56:48;17.50;90.30
26707;DHT22;14319;49.422;10.934;2023-09-19T00:58:50;17.50;91.10
26707;DHT22;14319;49.422;10.934;2023-09-19T01:00:52;17.40;90.40
26707;DHT22;14319;49.422;10.934;2023-09-19T01:02:54;17.40;91.10
26707;DHT22;14319;49.422;10.934;2023-09-19T01:04:55;17.40;91.20
26707;DHT22;14319;49.422;10.934;2023-09-19T01:06:55;17.40;91.60
26707;DHT22;14319;49.422;10.934;2023-09-19T01:08:58;17.30;91.40
26707;DHT22;14319;49.422;10.934;2023-09-19T01:11:15;17.30;90.90
26707;DHT22;14319;49.422;10.934;2023-09-19T01:15:56;17.40;90.70
26707;DHT22;14319;49.422;10.934;2023-09-19T01:18:03;17.40;91.00
26707;DHT22;14319;49.422;10.934;2023-09-19T01:23:11;17.40;91.20
26707;DHT22;14319;49.422;10.934;2023-09-19T01:30:13;17.40;90.20
26707;DHT22;14319;49.422;10.934;2023-09-19T01:32:19;17.30;90.00
26707;DHT22;14319;49.422;10.934;2023-09-19T01:34:22;17.20;90.40
26707;DHT22;14319;49.422;10.934;2023-09-19T01:36:23;17.20;90.40
26707;DHT22;14319;49.422;10.934;2023-09-19T01:38:24;17.20;91.50
26707;DHT22;14319;49.422;10.934;2023-09-19T01:40:25;17.20;92.20
26707;DHT22;14319;49.422;10.934;2023-09-19T01:42:37;17.20;92.00
26707;DHT22;14319;49.422;10.934;2023-09-19T01:44:51;17.20;91.70
26707;DHT22;14319;49.422;10.934;2023-09-19T01:46:58;17.20;92.10
26707;DHT22;14319;49.422;10.934;2023-09-19T01:51:05;17.30;91.70
26707;DHT22;14319;49.422;10.934;2023-09-19T01:53:22;17.40;91.90
26707;DHT22;14319;49.422;10.934;2023-09-19T01:55:26;17.40;91.40
26707;DHT22;14319;49.422;10.934;2023-09-19T01:57:30;17.30;91.60
26707;DHT22;14319;49.422;10.934;2023-09-19T01:59:43;17.40;91.20
26707;DHT22;14319;49.422;10.934;2023-09-19T02:01:46;17.40;91.50
26707;DHT22;14319;49.422;10.934;2023-09-19T02:03:48;17.20;91.10
26707;DHT22;14319;49.422;10.934;2023-09-19T02:05:50;16.80;92.30
26707;DHT22;14319;49.422;10.934;2023-09-19T02:07:52;16.30;95.00
26707;DHT22;14319;49.422;10.934;2023-09-19T02:09:53;16.20;96.20
26707;DHT22;14319;49.422;10.934;2023-09-19T02:11:55;16.30;95.90
26707;DHT22;14319;49.422;10.934;2023-09-19T02:13:56;16.40;95.90
26707;DHT22;14319;49.422;10.934;2023-09-19T02:15:57;16.50;95.90
26707;DHT22;14319;49.422;10.934;2023-09-19T02:17:57;16.60;95.80
26707;DHT22;14319;49.422;10.934;2023-09-19T02:19:59;16.70;96.30
26707;DHT22;14319;49.422;10.934;2023-09-19T02:22:01;16.80;95.00
26707;DHT22;14319;49.422;10.934;2023-09-19T02:24:08;16.90;94.60
26707;DHT22;14319;49.422;10.934;2023-09-19T02:26:09;16.90;93.50
26707;DHT22;14319;49.422;10.934;2023-09-19T02:28:09;16.90;92.60
26707;DHT22;14319;49.422;10.934;2023-09-19T02:30:10;16.70;93.50
26707;DHT22;14319;49.422;10.934;2023-09-19T02:32:11;16.50;94.50
26707;DHT22;14319;49.422;10.934;2023-09-19T02:34:12;16.30;95.90
26707;DHT22;14319;49.422;10.934;2023-09-19T02:36:12;16.40;95.80
26707;DHT22;14319;49.422;10.934;2023-09-19T02:38:13;16.40;96.20
26707;DHT22;14319;49.422;10.934;2023-09-19T02:40:15;16.50;95.60
26707;DHT22;14319;49.422;10.934;2023-09-19T02:42:19;16.50;95.50
26707;DHT22;14319;49.422;10.934;2023-09-19T02:44:19;16.40;94.60
26707;DHT22;14319;49.422;10.934;2023-09-19T02:46:20;16.30;95.20
26707;DHT22;14319;49.422;10.934;2023-09-19T02:48:21;16.30;95.40
26707;DHT22;14319;49.422;10.934;2023-09-19T02:50:21;16.30;95.50
26707;DHT22;14319;49.422;10.934;2023-09-19T02:52:22;16.30;95.60
26707;DHT22;14319;49.422;10.934;2023-09-19T02:54:25;16.20;95.60
26707;DHT22;14319;49.422;10.934;2023-09-19T02:56:26;16.30;95.70
26707;DHT22;14319;49.422;10.934;2023-09-19T02:58:27;16.30;95.20
26707;DHT22;14319;49.422;10.934;2023-09-19T03:00:28;16.50;95.30
26707;DHT22;14319;49.422;10.934;2023-09-19T03:02:30;16.50;94.60
26707;DHT22;14319;49.422;10.934;2023-09-19T03:04:35;16.50;94.40
26707;DHT22;14319;49.422;10.934;2023-09-19T03:06:36;16.60;95.10
26707;DHT22;14319;49.422;10.934;2023-09-19T03:08:36;16.70;94.60
26707;DHT22;14319;49.422;10.934;2023-09-19T03:10:39;16.90;93.80
26707;DHT22;14319;49.422;10.934;2023-09-19T03:12:40;16.70;93.30
26707;DHT22;14319;49.422;10.934;2023-09-19T03:14:42;16.80;94.10
26707;DHT22;14319;49.422;10.934;2023-09-19T03:16:42;17.00;93.60
26707;DHT22;14319;49.422;10.934;2023-09-19T03:18:45;17.00;92.50
26707;DHT22;14319;49.422;10.934;2023-09-19T03:20:53;17.00;93.60
26707;DHT22;14319;49.422;10.934;2023-09-19T03:22:55;17.20;93.30
26707;DHT22;14319;49.422;10.934;2023-09-19T03:24:57;17.10;92.50
26707;DHT22;14319;49.422;10.934;2023-09-19T03:26:58;17.00;93.40
26707;DHT22;14319;49.422;10.934;2023-09-19T03:28:59;16.90;93.20
26707;DHT22;14319;49.422;10.934;2023-09-19T03:31:04;16.90;93.10
26707;DHT22;14319;49.422;10.934;2023-09-19T03:33:07;16.90;93.50
26707;DHT22;14319;49.422;10.934;2023-09-19T03:35:09;16.70;93.70
26707;DHT22;14319;49.422;10.934;2023-09-19T03:37:14;16.80;93.80
26707;DHT22;14319;49.422;10.934;2023-09-19T03:39:16;16.80;93.40
26707;DHT22;14319;49.422;10.934;2023-09-19T03:41:17;16.90;93.80
26707;DHT22;14319;49.422;10.934;2023-09-19T03:43:18;17.10;92.90
26707;DHT22;14319;49.422;10.934;2023-09-19T03:45:19;17.00;92.40
26707;DHT22;14319;49.422;10.934;2023-09-19T03:47:24;17.10;92.60
26707;DHT22;14319;49.422;10.934;2023-09-19T03:49:25;17.10;93.10
26707;DHT22;14319;49.422;10.934;2023-09-19T03:51:25;17.10;92.60
26707;DHT22;14319;49.422;10.934;2023-09-19T03:53:26;17.10;92.80
26707;DHT22;14319;49.422;10.934;2023-09-19T03:55:26;17.00;92.50
26707;DHT22;14319;49.422;10.934;2023-09-19T03:57:27;16.90;92.70
26707;DHT22;14319;49.422;10.934;2023-09-19T03:59:28;16.80;93.70
26707;DHT22;14319;49.422;10.934;2023-09-19T04:01:29;16.90;93.70
26707;DHT22;14319;49.422;10.934;2023-09-19T04:03:36;16.90;93.10
26707;DHT22;14319;49.422;10.934;2023-09-19T04:05:47;16.80;93.50
26707;DHT22;14319;49.422;10.934;2023-09-19T04:07:50;16.60;94.10
26707;DHT22;14319;49.422;10.934;2023-09-19T04:09:51;16.80;94.50
26707;DHT22;14319;49.422;10.934;2023-09-19T04:11:55;16.80;93.80
26707;DHT22;14319;49.422;10.934;2023-09-19T04:13:56;16.60;93.60
26707;DHT22;14319;49.422;10.934;2023-09-19T04:15:57;16.50;94.10
26707;DHT22;14319;49.422;10.934;2023-09-19T04:17:58;16.40;94.70
26707;DHT22;14319;49.422;10.934;2023-09-19T04:19:59;16.20;95.70
26707;DHT22;14319;49.422;10.934;2023-09-19T04:21:59;16.30;96.10
26707;DHT22;14319;49.422;10.934;2023-09-19T04:24:00;16.40;95.70
26707;DHT22;14319;49.422;10.934;2023-09-19T04:26:01;16.40;95.30
26707;DHT22;14319;49.422;10.934;2023-09-19T04:28:01;16.50;95.30
26707;DHT22;14319;49.422;10.934;2023-09-19T04:30:02;16.50;95.60
26707;DHT22;14319;49.422;10.934;2023-09-19T04:32:04;16.60;95.30
26707;DHT22;14319;49.422;10.934;2023-09-19T04:34:06;16.70;95.20
26707;DHT22;14319;49.422;10.934;2023-09-19T04:36:08;16.90;95.10
26707;DHT22;14319;49.422;10.934;2023-09-19T04:38:08;16.90;94.60
26707;DHT22;14319;49.422;10.934;2023-09-19T04:40:10;17.00;94.00
26707;DHT22;14319;49.422;10.934;2023-09-19T04:42:14;17.00;94.20
26707;DHT22;14319;49.422;10.934;2023-09-19T04:44:15;17.10;93.70
26707;DHT22;14319;49.422;10.934;2023-09-19T04:46:16;17.20;93.20
26707;DHT22;14319;49.422;10.934;2023-09-19T04:48:18;17.30;93.30
26707;DHT22;14319;49.422;10.934;2023-09-19T04:50:19;17.20;93.40
26707;DHT22;14319;49.422;10.934;2023-09-19T04:52:21;17.00;93.00
26707;DHT22;14319;49.422;10.934;2023-09-19T04:54:22;17.00;94.10
26707;DHT22;14319;49.422;10.934;2023-09-19T04:56:23;17.10;94.00
26707;DHT22;14319;49.422;10.934;2023-09-19T04:58:24;17.10;93.40
26707;DHT22;14319;49.422;10.934;2023-09-19T05:00:25;17.10;93.90
26707;DHT22;14319;49.422;10.934;2023-09-19T05:02:29;17.10;93.70
26707;DHT22;14319;49.422;10.934;2023-09-19T05:04:31;17.20;93.50
26707;DHT22;14319;49.422;10.934;2023-09-19T05:06:32;17.20;92.70
26707;DHT22;14319;49.422;10.934;2023-09-19T05:08:34;17.20;92.60
26707;DHT22;14319;49.422;10.934;2023-09-19T05:10:34;17.20;93.20
26707;DHT22;14319;49.422;10.934;2023-09-19T05:12:38;17.20;93.40
26707;DHT22;14319;49.422;10.934;2023-09-19T05:14:38;17.20;93.30
26707;DHT22;14319;49.422;10.934;2023-09-19T05:16:40;17.20;93.10
26707;DHT22;14319;49.422;10.934;2023-09-19T05:18:41;17.30;93.20
26707;DHT22;14319;49.422;10.934;2023-09-19T05:20:42;17.30;92.60
26707;DHT22;14319;49.422;10.934;2023-09-19T05:22:43;17.30;92.90
26707;DHT22;14319;49.422;10.934;2023-09-19T05:24:46;17.20;92.90
26707;DHT22;14319;49.422;10.934;2023-09-19T05:26:49;17.30;93.20
26707;DHT22;14319;49.422;10.934;2023-09-19T05:28:50;17.20;93.20
26707;DHT22;14319;49.422;10.934;2023-09-19T05:30:50;17.30;93.40
26707;DHT22;14319;49.422;10.934;2023-09-19T05:32:51;17.20;92.80
26707;DHT22;14319;49.422;10.934;2023-09-19T05:34:52;17.30;92.90
26707;DHT22;14319;49.422;10.934;2023-09-19T05:36:53;17.30;92.90
26707;DHT22;14319;49.422;10.934;2023-09-19T05:38:55;17.30;93.40
26707;DHT22;14319;49.422;10.934;2023-09-19T05:40:56;17.40;92.80
26707;DHT22;14319;49.422;10.934;2023-09-19T05:42:56;17.30;93.10
26707;DHT22;14319;49.422;10.934;2023-09-19T05:44:57;17.30;92.80
26707;DHT22;14319;49.422;10.934;2023-09-19T05:46:59;17.40;93.10
26707;DHT22;14319;49.422;10.934;2023-09-19T05:48:59;17.40;93.00
26707;DHT22;14319;49.422;10.934;2023-09-19T05:51:00;17.40;92.30
26707;DHT22;14319;49.422;10.934;2023-09-19T05:53:01;17.50;92.40
26707;DHT22;14319;49.422;10.934;2023-09-19T05:55:02;17.30;92.30
26707;DHT22;14319;49.422;10.934;2023-09-19T05:57:05;17.20;92.60
26707;DHT22;14319;49.422;10.934;2023-09-19T05:59:06;17.20;92.10
26707;DHT22;14319;49.422;10.934;2023-09-19T06:01:06;17.20;92.30
26707;DHT22;14319;49.422;10.934;2023-09-19T06:03:07;17.30;92.50
26707;DHT22;14319;49.422;10.934;2023-09-19T06:05:08;17.30;92.20
26707;DHT22;14319;49.422;10.934;2023-09-19T06:07:12;17.20;92.70
26707;DHT22;14319;49.422;10.934;2023-09-19T06:09:12;17.30;92.40
26707;DHT22;14319;49.422;10.934;2023-09-19T06:11:14;17.20;91.90
26707;DHT22;14319;49.422;10.934;2023-09-19T06:13:14;17.10;92.80
26707;DHT22;14319;49.422;10.934;2023-09-19T06:15:15;17.00;93.30
26707;DHT22;14319;49.422;10.934;2023-09-19T06:17:19;17.10;92.90
26707;DHT22;14319;49.422;10.934;2023-09-19T06:19:20;17.10;92.30
26707;DHT22;14319;49.422;10.934;2023-09-19T06:21:23;17.20;92.00
26707;DHT22;14319;49.422;10.934;2023-09-19T06:23:24;17.20;92.20
26707;DHT22;14319;49.422;10.934;2023-09-19T06:25:26;17.10;92.10
26707;DHT22;14319;49.422;10.934;2023-09-19T06:27:27;17.10;92.10
26707;DHT22;14319;49.422;10.934;2023-09-19T06:29:29;17.20;91.60
26707;DHT22;14319;49.422;10.934;2023-09-19T06:31:30;17.20;91.90
26707;DHT22;14319;49.422;10.934;2023-09-19T06:33:31;17.40;91.50
26707;DHT22;14319;49.422;10.934;2023-09-19T06:35:34;17.20;90.90
26707;DHT22;14319;49.422;10.934;2023-09-19T06:37:35;17.30;91.20
26707;DHT22;14319;49.422;10.934;2023-09-19T06:39:35;17.30;91.50
26707;DHT22;14319;49.422;10.934;2023-09-19T06:41:37;17.30;91.60
26707;DHT22;14319;49.422;10.934;2023-09-19T06:43:43;17.20;90.60
26707;DHT22;14319;49.422;10.934;2023-09-19T06:45:45;17.20;90.10
26707;DHT22;14319;49.422;10.934;2023-09-19T06:47:47;17.20;89.40
26707;DHT22;14319;49.422;10.934;2023-09-19T06:49:51;17.10;89.80
26707;DHT22;14319;49.422;10.934;2023-09-19T06:51:54;17.00;89.40
26707;DHT22;14319;49.422;10.934;2023-09-19T06:53:55;17.00;90.40
26707;DHT22;14319;49.422;10.934;2023-09-19T06:55:57;17.00;89.50
26707;DHT22;14319;49.422;10.934;2023-09-19T06:57:58;17.00;89.10
26707;DHT22;14319;49.422;10.934;2023-09-19T06:59:59;17.10;90.10
26707;DHT22;14319;49.422;10.934;2023-09-19T07:02:01;17.00;89.20
26707;DHT22;14319;49.422;10.934;2023-09-19T07:04:03;17.10;89.30
26707;DHT22;14319;49.422;10.934;2023-09-19T07:06:03;17.10;87.90
26707;DHT22;14319;49.422;10.934;2023-09-19T07:08:08;17.20;88.30
26707;DHT22;14319;49.422;10.934;2023-09-19T07:10:12;17.40;86.20
26707;DHT22;14319;49.422;10.934;2023-09-19T07:12:13;17.40;86.30
26707;DHT22;14319;49.422;10.934;2023-09-19T07:14:14;17.40;86.40
26707;DHT22;14319;49.422;10.934;2023-09-19T07:16:15;17.40;86.80
26707;DHT22;14319;49.422;10.934;2023-09-19T07:18:27;17.40;87.00
26707;DHT22;14319;49.422;10.934;2023-09-19T07:20:28;17.60;85.30
26707;DHT22;14319;49.422;10.934;2023-09-19T07:22:32;17.40;84.20
26707;DHT22;14319;49.422;10.934;2023-09-19T07:24:32;17.40;83.90
26707;DHT22;14319;49.422;10.934;2023-09-19T07:26:33;17.30;84.40
26707;DHT22;14319;49.422;10.934;2023-09-19T07:28:33;17.20;84.20
26707;DHT22;14319;49.422;10.934;2023-09-19T07:30:38;17.20;84.20
26707;DHT22;14319;49.422;10.934;2023-09-19T07:32:39;17.30;85.40
26707;DHT22;14319;49.422;10.934;2023-09-19T07:34:41;17.40;86.30
26707;DHT22;14319;49.422;10.934;2023-09-19T07:36:41;17.40;84.80
26707;DHT22;14319;49.422;10.934;2023-09-19T07:38:42;17.40;84.30
26707;DHT22;14319;49.422;10.934;2023-09-19T07:40:43;17.40;85.40
26707;DHT22;14319;49.422;10.934;2023-09-19T07:42:44;17.40;84.90
26707;DHT22;14319;49.422;10.934;2023-09-19T07:44:47;17.50;84.40
26707;DHT22;14319;49.422;10.934;2023-09-19T07:46:51;17.50;84.40
26707;DHT22;14319;49.422;10.934;2023-09-19T07:48:52;17.50;84.20
26707;DHT22;14319;49.422;10.934;2023-09-19T07:50:53;17.60;83.00
26707;DHT22;14319;49.422;10.934;2023-09-19T07:52:54;17.60;82.30
26707;DHT22;14319;49.422;10.934;2023-09-19T07:54:55;17.60;81.80
26707;DHT22;14319;49.422;10.934;2023-09-19T07:56:57;17.60;82.00
26707;DHT22;14319;49.422;10.934;2023-09-19T07:58:58;17.70;82.20
26707;DHT22;14319;49.422;10.934;2023-09-19T08:01:10;17.80;83.30
26707;DHT22;14319;49.422;10.934;2023-09-19T08:03:10;17.80;81.60
26707;DHT22;14319;49.422;10.934;2023-09-19T08:05:15;17.90;83.50
26707;DHT22;14319;49.422;10.934;2023-09-19T08:07:16;17.90;82.60
26707;DHT22;14319;49.422;10.934;2023-09-19T08:09:17;18.00;83.40
26707;DHT22;14319;49.422;10.934;2023-09-19T08:11:21;17.90;82.60
26707;DHT22;14319;49.422;10.934;2023-09-19T08:13:25;17.90;83.40
26707;DHT22;14319;49.422;10.934;2023-09-19T08:15:26;17.80;82.60
26707;DHT22;14319;49.422;10.934;2023-09-19T08:17:27;17.70;82.90
26707;DHT22;14319;49.422;10.934;2023-09-19T08:19:28;17.70;82.90
26707;DHT22;14319;49.422;10.934;2023-09-19T08:21:28;17.90;83.20
26707;DHT22;14319;49.422;10.934;2023-09-19T08:23:30;17.90;81.70
26707;DHT22;14319;49.422;10.934;2023-09-19T08:25:32;18.10;82.00
26707;DHT22;14319;49.422;10.934;2023-09-19T08:27:33;17.90;81.60
26707;DHT22;14319;49.422;10.934;2023-09-19T08:29:36;17.90;83.20
26707;DHT22;14319;49.422;10.934;2023-09-19T08:31:37;17.90;83.30
26707;DHT22;14319;49.422;10.934;2023-09-19T08:33:37;18.10;83.90
26707;DHT22;14319;49.422;10.934;2023-09-19T08:35:38;17.80;81.30
26707;DHT22;14319;49.422;10.934;2023-09-19T08:37:40;18.00;83.40
26707;DHT22;14319;49.422;10.934;2023-09-19T08:39:40;18.20;82.40
26707;DHT22;14319;49.422;10.934;2023-09-19T08:41:41;18.20;82.50
26707;DHT22;14319;49.422;10.934;2023-09-19T08:43:41;18.30;81.20
26707;DHT22;14319;49.422;10.934;2023-09-19T08:45:43;18.20;81.00
26707;DHT22;14319;49.422;10.934;2023-09-19T08:47:57;18.30;80.70
26707;DHT22;14319;49.422;10.934;2023-09-19T08:52:20;18.10;81.20
26707;DHT22;14319;49.422;10.934;2023-09-19T08:54:25;18.00;78.70
26707;DHT22;14319;49.422;10.934;2023-09-19T08:56:29;18.10;78.50
26707;DHT22;14319;49.422;10.934;2023-09-19T08:58:45;18.10;78.60
26707;DHT22;14319;49.422;10.934;2023-09-19T09:00:48;18.20;78.50
26707;DHT22;14319;49.422;10.934;2023-09-19T09:02:50;18.20;77.70
26707;DHT22;14319;49.422;10.934;2023-09-19T09:04:51;18.20;76.20
26707;DHT22;14319;49.422;10.934;2023-09-19T09:06:53;18.10;75.60
26707;DHT22;14319;49.422;10.934;2023-09-19T09:08:55;18.10;76.70
26707;DHT22;14319;49.422;10.934;2023-09-19T09:10:57;18.20;77.80
26707;DHT22;14319;49.422;10.934;2023-09-19T09:12:58;18.20;77.20
26707;DHT22;14319;49.422;10.934;2023-09-19T09:14:59;18.20;78.10
26707;DHT22;14319;49.422;10.934;2023-09-19T09:17:00;18.30;78.10
26707;DHT22;14319;49.422;10.934;2023-09-19T09:19:03;18.40;77.10
26707;DHT22;14319;49.422;10.934;2023-09-19T09:21:03;18.40;76.80
26707;DHT22;14319;49.422;10.934;2023-09-19T09:23:04;18.40;76.80
26707;DHT22;14319;49.422;10.934;2023-09-19T09:25:06;18.20;77.40
26707;DHT22;14319;49.422;10.934;2023-09-19T09:27:07;18.40;77.50
26707;DHT22;14319;49.422;10.934;2023-09-19T09:29:10;18.40;77.30
26707;DHT22;14319;49.422;10.934;2023-09-19T09:31:24;18.50;76.60
26707;DHT22;14319;49.422;10.934;2023-09-19T09:33:25;18.30;76.40
26707;DHT22;14319;49.422;10.934;2023-09-19T09:35:26;18.30;78.30
26707;DHT22;14319;49.422;10.934;2023-09-19T09:37:28;18.10;76.30
26707;DHT22;14319;49.422;10.934;2023-09-19T09:39:31;18.10;77.10
26707;DHT22;14319;49.422;10.934;2023-09-19T09:41:38;18.00;77.00
26707;DHT22;14319;49.422;10.934;2023-09-19T09:43:40;18.00;77.40
26707;DHT22;14319;49.422;10.934;2023-09-19T09:45:42;18.10;77.90
26707;DHT22;14319;49.422;10.934;2023-09-19T09:47:49;17.90;77.30
26707;DHT22;14319;49.422;10.934;2023-09-19T09:49:56;17.90;78.40
26707;DHT22;14319;49.422;10.934;2023-09-19T09:52:07;17.90;77.80
26707;DHT22;14319;49.422;10.934;2023-09-19T09:54:18;17.80;77.90
26707;DHT22;14319;49.422;10.934;2023-09-19T09:56:21;17.90;78.10
26707;DHT22;14319;49.422;10.934;2023-09-19T09:58:23;17.90;78.40
26707;DHT22;14319;49.422;10.934;2023-09-19T10:00:29;18.00;78.60
26707;DHT22;14319;49.422;10.934;2023-09-19T10:02:43;18.00;78.20
26707;DHT22;14319;49.422;10.934;2023-09-19T10:04:46;18.00;78.60
26707;DHT22;14319;49.422;10.934;2023-09-19T10:06:59;18.10;79.90
26707;DHT22;14319;49.422;10.934;2023-09-19T10:09:10;18.20;80.00
26707;DHT22;14319;49.422;10.934;2023-09-19T10:11:16;18.40;78.60
26707;DHT22;14319;49.422;10.934;2023-09-19T10:13:17;18.50;78.50
26707;DHT22;14319;49.422;10.934;2023-09-19T10:15:26;18.40;77.40
26707;DHT22;14319;49.422;10.934;2023-09-19T10:17:34;18.60;77.10
26707;DHT22;14319;49.422;10.934;2023-09-19T10:19:43;18.70;77.20
26707;DHT22;14319;49.422;10.934;2023-09-19T10:21:47;18.60;75.40
26707;DHT22;14319;49.422;10.934;2023-09-19T10:23:50;18.60;75.30
26707;DHT22;14319;49.422;10.934;2023-09-19T10:25:53;18.60;74.90
26707;DHT22;14319;49.422;10.934;2023-09-19T10:27:54;18.80;74.00
26707;DHT22;14319;49.422;10.934;2023-09-19T10:29:56;18.80;74.50
26707;DHT22;14319;49.422;10.934;2023-09-19T10:31:58;18.90;71.00
26707;DHT22;14319;49.422;10.934;2023-09-19T10:33:59;18.90;70.20
26707;DHT22;14319;49.422;10.934;2023-09-19T10:36:05;18.80;71.00
26707;DHT22;14319;49.422;10.934;2023-09-19T10:38:06;18.90;69.60
26707;DHT22;14319;49.422;10.934;2023-09-19T10:40:07;18.90;70.90
26707;DHT22;14319;49.422;10.934;2023-09-19T10:42:11;18.80;69.40
26707;DHT22;14319;49.422;10.934;2023-09-19T10:44:17;18.90;71.10
26707;DHT22;14319;49.422;10.934;2023-09-19T10:46:19;19.00;71.70
26707;DHT22;14319;49.422;10.934;2023-09-19T10:48:21;19.20;70.00
26707;DHT22;14319;49.422;10.934;2023-09-19T10:50:27;19.30;68.30
26707;DHT22;14319;49.422;10.934;2023-09-19T10:52:32;19.20;69.20
26707;DHT22;14319;49.422;10.934;2023-09-19T10:54:35;19.30;70.00
26707;DHT22;14319;49.422;10.934;2023-09-19T10:56:43;19.30;70.30
26707;DHT22;14319;49.422;10.934;2023-09-19T10:58:47;19.40;69.70
26707;DHT22;14319;49.422;10.934;2023-09-19T11:00:51;19.50;68.20
26707;DHT22;14319;49.422;10.934;2023-09-19T11:05:13;19.30;68.20
26707;DHT22;14319;49.422;10.934;2023-09-19T11:07:14;19.40;68.30
26707;DHT22;14319;49.422;10.934;2023-09-19T11:09:15;19.40;68.60
26707;DHT22;14319;49.422;10.934;2023-09-19T11:11:44;19.40;68.50
26707;DHT22;14319;49.422;10.934;2023-09-19T11:16:26;19.40;68.10
26707;DHT22;14319;49.422;10.934;2023-09-19T11:20:42;19.40;67.10
26707;DHT22;14319;49.422;10.934;2023-09-19T11:27:30;19.70;68.20
26707;DHT22;14319;49.422;10.934;2023-09-19T11:29:34;19.60;68.20
26707;DHT22;14319;49.422;10.934;2023-09-19T11:31:45;19.70;67.60
26707;DHT22;14319;49.422;10.934;2023-09-19T11:33:45;19.70;67.10
26707;DHT22;14319;49.422;10.934;2023-09-19T11:36:12;19.80;67.50
26707;DHT22;14319;49.422;10.934;2023-09-19T11:38:16;19.70;67.40
26707;DHT22;14319;49.422;10.934;2023-09-19T11:40:17;19.90;65.80
26707;DHT22;14319;49.422;10.934;2023-09-19T11:42:43;19.70;67.40
26707;DHT22;14319;49.422;10.934;2023-09-19T11:44:44;19.50;69.20
26707;DHT22;14319;49.422;10.934;2023-09-19T11:46:53;19.40;70.90
26707;DHT22;14319;49.422;10.934;2023-09-19T11:48:54;19.30;70.10
26707;DHT22;14319;49.422;10.934;2023-09-19T11:50:56;19.00;69.90
26707;DHT22;14319;49.422;10.934;2023-09-19T11:52:58;19.00;71.70
26707;DHT22;14319;49.422;10.934;2023-09-19T11:55:00;19.10;71.20
26707;DHT22;14319;49.422;10.934;2023-09-19T11:57:02;19.00;70.70
26707;DHT22;14319;49.422;10.934;2023-09-19T11:59:03;19.10;70.50
26707;DHT22;14319;49.422;10.934;2023-09-19T12:01:05;19.10;68.70
26707;DHT22;14319;49.422;10.934;2023-09-19T12:03:13;19.20;68.10
26707;DHT22;14319;49.422;10.934;2023-09-19T12:05:28;19.40;68.20
26707;DHT22;14319;49.422;10.934;2023-09-19T12:07:29;19.40;66.90
26707;DHT22;14319;49.422;10.934;2023-09-19T12:09:30;19.40;67.20
26707;DHT22;14319;49.422;10.934;2023-09-19T12:11:31;19.30;68.60
26707;DHT22;14319;49.422;10.934;2023-09-19T12:13:36;19.40;66.60
26707;DHT22;14319;49.422;10.934;2023-09-19T12:15:38;19.30;68.20
26707;DHT22;14319;49.422;10.934;2023-09-19T12:17:41;19.30;69.10
26707;DHT22;14319;49.422;10.934;2023-09-19T12:19:55;19.50;68.10
26707;DHT22;14319;49.422;10.934;2023-09-19T12:21:59;19.60;68.00
26707;DHT22;14319;49.422;10.934;2023-09-19T12:26:06;19.60;67.50
26707;DHT22;14319;49.422;10.934;2023-09-19T12:28:13;19.50;67.80
26707;DHT22;14319;49.422;10.934;2023-09-19T12:30:14;19.50;69.30
26707;DHT22;14319;49.422;10.934;2023-09-19T12:32:17;19.60;70.10
26707;DHT22;14319;49.422;10.934;2023-09-19T12:34:23;19.60;68.90
26707;DHT22;14319;49.422;10.934;2023-09-19T12:36:27;19.50;68.40
26707;DHT22;14319;49.422;10.934;2023-09-19T12:38:30;19.60;67.90
26707;DHT22;14319;49.422;10.934;2023-09-19T12:40:35;19.40;67.90
26707;DHT22;14319;49.422;10.934;2023-09-19T12:42:38;19.40;68.60
26707;DHT22;14319;49.422;10.934;2023-09-19T12:44:44;19.40;68.10
26707;DHT22;14319;49.422;10.934;2023-09-19T12:46:45;19.50;69.90
26707;DHT22;14319;49.422;10.934;2023-09-19T12:48:46;19.70;67.50
26707;DHT22;14319;49.422;10.934;2023-09-19T12:51:05;19.80;67.70
26707;DHT22;14319;49.422;10.934;2023-09-19T12:53:06;19.80;67.40
26707;DHT22;14319;49.422;10.934;2023-09-19T12:55:07;19.80;68.50
26707;DHT22;14319;49.422;10.934;2023-09-19T12:57:08;19.50;67.30
26707;DHT22;14319;49.422;10.934;2023-09-19T12:59:09;19.60;68.20
26707;DHT22;14319;49.422;10.934;2023-09-19T13:01:15;19.70;68.00
26707;DHT22;14319;49.422;10.934;2023-09-19T13:03:17;19.70;68.10
26707;DHT22;14319;49.422;10.934;2023-09-19T13:05:49;19.80;68.80
26707;DHT22;14319;49.422;10.934;2023-09-19T13:07:54;19.70;68.40
26707;DHT22;14319;49.422;10.934;2023-09-19T13:10:04;19.80;68.90
26707;DHT22;14319;49.422;10.934;2023-09-19T13:12:34;19.90;68.40
26707;DHT22;14319;49.422;10.934;2023-09-19T13:14:37;20.10;68.50